KSGH/SGH METAR and TAF weather

Enter ICAO airport designator
Station Type Date Time Source
KSGH METAR 2020/02/25 12:42 UTC NOAA

KSGH 251242Z AUTO 07010KT 1 1/4SM BR OVC003 04/04 A2971 RMK AO2 RAB08E31 PNO $


Station Type Date Time Source
KSGH Decoded METAR 2020/02/25 12:42 UTC NOAA

Springfield, Springfield-Beckley Municipal Airport, OH, United States (KSGH) 39-50-25N 083-50-24W
Feb 25, 2020 - 07:42 AM EST / 2020.02.25 1242 UTC
Wind: from the ENE (070 degrees) at 12 MPH (10 KT):0
Visibility: 1 1/4 mile(s):0
Sky conditions: overcast
Weather: mist
Temperature: 39 F (4 C)
Dew Point: 39 F (4 C)
Relative Humidity: 100%
Pressure (altimeter): 29.71 in. Hg (1006 hPa)
ob: KSGH 251242Z AUTO 07010KT 1 1/4SM BR OVC003 04/04 A2971 RMK AO2 RAB08E31 PNO
cycle: 12

Station Type Date Time Source
KSGH TAF UTC NOAA

Error!

Example: see airport list